Time;durP1;ratioP1;P1;durP2;ratioP2;P2;SDS_P1;SDS_P2;PMS_P1;PMS_P2;Temp;Humidity;BMP_temperature;BMP_pressure;BME280_temperature;BME280_humidity;BME280_pressure;Samples;Min_cycle;Max_cycle;Signal;HPM_P1;HPM_P2
2023/04/07 00:02:12;;;;;;;13.60;9.00;;;;;;;;;;5096787;28;20431;-47
2023/04/07 00:04:38;;;;;;;13.70;9.03;;;;;;;;;;5096665;28;20740;-45
2023/04/07 00:07:04;;;;;;;14.97;10.10;;;;;;;;;;5097063;28;20418;-47
2023/04/07 00:09:30;;;;;;;14.20;10.57;;;;;;;;;;5097155;28;20472;-46
2023/04/07 00:11:56;;;;;;;11.40;9.00;;;;;;;;;;5092449;28;20560;-46
2023/04/07 00:14:22;;;;;;;16.77;11.10;;;;;;;;;;5093586;28;20469;-46
2023/04/07 00:16:48;;;;;;;16.17;10.87;;;;;;;;;;5096572;28;20425;-46
2023/04/07 00:19:14;;;;;;;14.27;10.17;;;;;;;;;;5096320;28;20414;-47
2023/04/07 00:21:40;;;;;;;16.63;11.00;;;;;;;;;;5094985;28;20533;-45
2023/04/07 00:24:06;;;;;;;16.87;10.97;;;;;;;;;;5091732;28;20466;-45
2023/04/07 00:26:32;;;;;;;14.57;10.80;;;;;;;;;;5092204;28;20436;-45
2023/04/07 00:28:58;;;;;;;15.73;11.80;;;;;;;;;;5093460;28;20466;-44
2023/04/07 00:31:24;;;;;;;15.30;11.13;;;;;;;;;;5093279;28;20501;-44
2023/04/07 00:33:50;;;;;;;15.90;10.63;;;;;;;;;;5093420;28;20860;-45
2023/04/07 00:36:16;;;;;;;14.67;10.90;;;;;;;;;;5093196;28;20424;-44
2023/04/07 00:38:42;;;;;;;14.00;9.93;;;;;;;;;;5091971;28;20893;-44
2023/04/07 00:41:08;;;;;;;14.60;10.70;;;;;;;;;;5093221;28;20401;-45
2023/04/07 00:43:34;;;;;;;14.47;10.90;;;;;;;;;;5093252;28;20962;-45
2023/04/07 00:46:00;;;;;;;20.10;12.17;;;;;;;;;;5088595;28;20430;-45
2023/04/07 00:48:26;;;;;;;16.67;11.10;;;;;;;;;;5093256;28;20801;-45
2023/04/07 00:50:52;;;;;;;15.50;11.33;;;;;;;;;;5092993;28;20431;-45
2023/04/07 00:53:19;;;;;;;15.07;11.30;;;;;;;;;;5091625;28;20427;-45
2023/04/07 00:55:45;;;;;;;15.60;10.83;;;;;;;;;;5091540;28;20482;-45
2023/04/07 00:58:11;;;;;;;13.17;10.67;;;;;;;;;;5091915;28;20864;-45
2023/04/07 01:01:00;;;;;;;15.37;11.03;;;;;;;;;;5089547;28;20746;-44
2023/04/07 01:03:45;;;;;;;16.23;11.37;;;;;;;;;;5076477;28;20431;-44
2023/04/07 01:06:12;;;;;;;14.23;10.87;;;;;;;;;;5085585;28;20436;-45
2023/04/07 01:08:48;;;;;;;15.20;10.83;;;;;;;;;;5091086;28;20457;-44
2023/04/07 01:11:23;;;;;;;16.30;11.93;;;;;;;;;;5092769;28;20409;-45
2023/04/07 01:13:50;;;;;;;14.10;10.23;;;;;;;;;;5092617;28;20404;-45
2023/04/07 01:16:34;;;;;;;15.03;11.10;;;;;;;;;;5092690;28;20413;-44
2023/04/07 01:19:04;;;;;;;13.77;10.23;;;;;;;;;;5092809;28;20410;-45
2023/04/07 01:21:33;;;;;;;13.10;10.23;;;;;;;;;;5092340;28;20510;-44
2023/04/07 01:24:18;;;;;;;18.87;11.70;;;;;;;;;;5092564;28;20409;-45
2023/04/07 01:26:44;;;;;;;14.77;10.60;;;;;;;;;;5087672;28;20916;-44
2023/04/07 01:29:25;;;;;;;14.17;10.80;;;;;;;;;;5091375;28;20468;-44
2023/04/07 01:31:54;;;;;;;14.80;11.47;;;;;;;;;;5092211;28;20802;-45
2023/04/07 01:34:20;;;;;;;15.77;10.67;;;;;;;;;;5092301;28;20405;-46
2023/04/07 01:36:47;;;;;;;14.37;11.10;;;;;;;;;;5092155;28;20501;-44
2023/04/07 01:39:14;;;;;;;14.30;10.50;;;;;;;;;;5092304;28;20417;-44
2023/04/07 01:41:41;;;;;;;19.00;11.30;;;;;;;;;;5091894;28;20439;-45
2023/04/07 01:44:07;;;;;;;17.13;11.30;;;;;;;;;;5092172;28;20413;-43
2023/04/07 01:46:33;;;;;;;18.73;11.80;;;;;;;;;;5092175;28;20421;-43
2023/04/07 01:49:00;;;;;;;16.60;13.13;;;;;;;;;;5091079;28;20863;-45
2023/04/07 01:51:27;;;;;;;13.30;10.83;;;;;;;;;;5091632;28;21782;-44
2023/04/07 01:53:54;;;;;;;14.97;11.43;;;;;;;;;;5092018;28;20487;-44
2023/04/07 01:56:20;;;;;;;17.57;11.97;;;;;;;;;;5091932;28;20404;-44
2023/04/07 01:58:45;;;;;;;20.80;13.63;;;;;;;;;;5089405;28;20508;-44
2023/04/07 02:01:13;;;;;;;18.50;12.10;;;;;;;;;;5090837;28;20421;-44
2023/04/07 02:03:43;;;;;;;19.17;12.03;;;;;;;;;;5090895;28;21016;-44
2023/04/07 02:06:11;;;;;;;16.93;12.63;;;;;;;;;;5092099;28;20409;-44
2023/04/07 02:08:38;;;;;;;18.97;12.73;;;;;;;;;;5091699;28;20468;-44
2023/04/07 02:11:06;;;;;;;15.43;11.20;;;;;;;;;;5091800;28;20403;-45
2023/04/07 02:13:33;;;;;;;20.40;11.77;;;;;;;;;;5091678;28;20490;-44
2023/04/07 02:16:01;;;;;;;17.70;11.47;;;;;;;;;;5091842;28;20412;-44
2023/04/07 02:18:28;;;;;;;14.23;10.53;;;;;;;;;;5091681;28;20505;-44
2023/04/07 02:20:54;;;;;;;15.90;12.80;;;;;;;;;;5089413;28;20423;-45
2023/04/07 02:23:20;;;;;;;17.67;11.90;;;;;;;;;;5090224;28;20432;-44
2023/04/07 02:25:46;;;;;;;17.97;12.77;;;;;;;;;;5090835;28;20420;-44
2023/04/07 02:28:12;;;;;;;19.47;12.80;;;;;;;;;;5086045;28;20457;-45
2023/04/07 02:30:38;;;;;;;14.97;11.53;;;;;;;;;;5091771;28;20401;-44
2023/04/07 02:33:04;;;;;;;18.13;12.03;;;;;;;;;;5091313;28;20966;-45
2023/04/07 02:35:30;;;;;;;19.97;12.83;;;;;;;;;;5091604;28;20772;-45
2023/04/07 02:37:56;;;;;;;15.23;11.63;;;;;;;;;;5090464;28;20418;-45
2023/04/07 02:40:22;;;;;;;19.97;10.67;;;;;;;;;;5091542;28;20868;-45
2023/04/07 02:42:48;;;;;;;17.77;12.00;;;;;;;;;;5091155;28;20443;-44
2023/04/07 02:45:14;;;;;;;19.00;12.13;;;;;;;;;;5091556;28;20425;-45
2023/04/07 02:47:40;;;;;;;17.63;11.77;;;;;;;;;;5091172;28;20940;-45
2023/04/07 02:50:06;;;;;;;13.00;10.70;;;;;;;;;;5091513;28;20454;-44
2023/04/07 02:52:32;;;;;;;18.80;10.80;;;;;;;;;;5090233;28;20488;-44
2023/04/07 02:54:58;;;;;;;19.70;12.83;;;;;;;;;;5091436;28;20494;-44
2023/04/07 02:57:24;;;;;;;19.07;12.23;;;;;;;;;;5087673;28;20429;-44
2023/04/07 02:59:50;;;;;;;18.33;13.40;;;;;;;;;;5091318;28;20418;-44
2023/04/07 03:02:16;;;;;;;16.47;11.50;;;;;;;;;;5090878;28;21019;-44
2023/04/07 03:04:42;;;;;;;20.00;12.87;;;;;;;;;;5090569;28;20406;-44
2023/04/07 03:07:08;;;;;;;17.50;13.23;;;;;;;;;;5091356;28;20981;-45
2023/04/07 03:09:34;;;;;;;20.50;12.30;;;;;;;;;;5087994;28;20515;-45
2023/04/07 03:12:01;;;;;;;17.27;12.30;;;;;;;;;;5090851;28;20512;-45
2023/04/07 03:14:27;;;;;;;21.53;12.70;;;;;;;;;;5091245;28;20441;-45
2023/04/07 03:16:53;;;;;;;22.10;13.03;;;;;;;;;;5091024;28;20837;-45
2023/04/07 03:19:19;;;;;;;20.10;13.20;;;;;;;;;;5090862;28;20414;-46
2023/04/07 03:21:45;;;;;;;19.80;14.20;;;;;;;;;;5088409;28;20445;-46
2023/04/07 03:24:11;;;;;;;22.80;14.83;;;;;;;;;;5091259;28;20462;-45
2023/04/07 03:26:37;;;;;;;23.30;14.60;;;;;;;;;;5094937;28;20457;-45
2023/04/07 03:29:03;;;;;;;24.37;13.67;;;;;;;;;;5090833;28;20468;-45
2023/04/07 03:31:29;;;;;;;25.53;14.33;;;;;;;;;;5094381;28;20435;-44
2023/04/07 03:33:55;;;;;;;23.93;15.20;;;;;;;;;;5093908;28;20476;-44
2023/04/07 03:36:21;;;;;;;24.53;16.43;;;;;;;;;;5094842;28;20506;-44
2023/04/07 03:38:47;;;;;;;23.63;15.70;;;;;;;;;;5094581;28;20452;-44
2023/04/07 03:41:13;;;;;;;22.70;14.60;;;;;;;;;;5094513;28;20436;-45
2023/04/07 03:43:39;;;;;;;24.43;16.27;;;;;;;;;;5094412;28;20400;-44
2023/04/07 03:46:05;;;;;;;23.97;15.10;;;;;;;;;;5094725;28;20739;-44
2023/04/07 03:48:31;;;;;;;27.63;15.10;;;;;;;;;;5086264;28;20836;-45
2023/04/07 03:50:57;;;;;;;26.33;15.20;;;;;;;;;;5093897;28;20416;-45
2023/04/07 03:53:23;;;;;;;25.57;16.00;;;;;;;;;;5094130;28;20439;-45
2023/04/07 03:55:49;;;;;;;29.97;15.23;;;;;;;;;;5094312;28;20826;-44
2023/04/07 03:58:15;;;;;;;25.83;15.40;;;;;;;;;;5094141;28;20417;-45
2023/04/07 04:00:41;;;;;;;24.30;15.10;;;;;;;;;;5093365;28;20444;-44
2023/04/07 04:03:07;;;;;;;25.57;14.17;;;;;;;;;;5093992;28;20867;-44
2023/04/07 04:05:33;;;;;;;59.93;15.47;;;;;;;;;;5094191;28;20417;-44
2023/04/07 04:07:59;;;;;;;42.93;15.37;;;;;;;;;;5093923;28;20484;-45
2023/04/07 04:10:26;;;;;;;23.67;14.40;;;;;;;;;;5094069;28;20418;-43
2023/04/07 04:12:52;;;;;;;33.80;13.90;;;;;;;;;;5093491;28;20468;-45
2023/04/07 04:15:17;;;;;;;24.40;14.80;;;;;;;;;;5093462;28;20436;-44
2023/04/07 04:17:44;;;;;;;21.87;13.27;;;;;;;;;;5093782;28;20436;-45
2023/04/07 04:20:10;;;;;;;28.60;14.77;;;;;;;;;;5088768;28;20582;-44
2023/04/07 04:22:36;;;;;;;23.40;12.80;;;;;;;;;;5092654;28;20970;-44
2023/04/07 04:25:02;;;;;;;24.43;14.30;;;;;;;;;;5088243;28;20417;-45
2023/04/07 04:27:28;;;;;;;23.40;13.80;;;;;;;;;;5093417;28;20595;-44
2023/04/07 04:29:54;;;;;;;28.53;12.87;;;;;;;;;;5093162;28;20857;-45
2023/04/07 04:32:20;;;;;;;27.63;14.53;;;;;;;;;;5093247;28;20826;-45
2023/04/07 04:34:46;;;;;;;29.07;15.77;;;;;;;;;;5090720;28;20436;-44
2023/04/07 04:37:12;;;;;;;26.33;14.03;;;;;;;;;;5093520;28;20411;-44
2023/04/07 04:39:38;;;;;;;28.77;15.90;;;;;;;;;;5093335;28;20407;-44
2023/04/07 04:42:05;;;;;;;29.93;15.27;;;;;;;;;;5092939;28;20433;-44
2023/04/07 04:44:31;;;;;;;25.03;13.90;;;;;;;;;;5092703;28;20394;-44
2023/04/07 04:46:57;;;;;;;29.87;15.37;;;;;;;;;;5093149;28;20421;-45
2023/04/07 04:49:23;;;;;;;36.27;15.37;;;;;;;;;;5093265;28;20417;-44
2023/04/07 04:51:49;;;;;;;30.33;15.83;;;;;;;;;;5092801;28;20440;-43
2023/04/07 04:54:16;;;;;;;30.77;16.07;;;;;;;;;;5091629;28;20477;-44
2023/04/07 04:56:41;;;;;;;30.73;15.80;;;;;;;;;;5089966;28;20968;-45
2023/04/07 04:59:07;;;;;;;27.13;15.10;;;;;;;;;;5092276;28;20421;-44
2023/04/07 05:01:33;;;;;;;29.87;16.33;;;;;;;;;;5090565;28;20512;-44
2023/04/07 05:04:00;;;;;;;32.13;16.07;;;;;;;;;;5092905;28;20878;-44
2023/04/07 05:06:26;;;;;;;27.90;16.10;;;;;;;;;;5093217;28;20938;-44
2023/04/07 05:08:52;;;;;;;26.97;15.20;;;;;;;;;;5092777;28;20927;-45
2023/04/07 05:11:18;;;;;;;28.23;15.30;;;;;;;;;;5092024;28;20410;-44
2023/04/07 05:13:44;;;;;;;29.10;15.43;;;;;;;;;;5092556;28;20786;-44
2023/04/07 05:16:10;;;;;;;33.63;16.07;;;;;;;;;;5092399;28;20409;-44
2023/04/07 05:18:36;;;;;;;28.23;15.67;;;;;;;;;;5092283;28;20431;-44
2023/04/07 05:21:02;;;;;;;26.93;15.03;;;;;;;;;;5086441;28;20424;-45
2023/04/07 05:23:28;;;;;;;30.67;14.43;;;;;;;;;;5085227;28;20433;-44
2023/04/07 05:25:54;;;;;;;20.77;12.83;;;;;;;;;;5092017;28;20449;-44
2023/04/07 05:28:20;;;;;;;28.13;13.80;;;;;;;;;;5092332;28;20460;-45
2023/04/07 05:30:47;;;;;;;27.43;14.77;;;;;;;;;;5086491;28;20464;-45
2023/04/07 05:33:13;;;;;;;26.97;15.00;;;;;;;;;;5092188;28;20441;-44
2023/04/07 05:35:39;;;;;;;24.63;13.50;;;;;;;;;;5090195;28;20776;-43
2023/04/07 05:38:05;;;;;;;27.83;13.60;;;;;;;;;;5092244;28;20502;-44
2023/04/07 05:40:31;;;;;;;33.00;14.07;;;;;;;;;;5087200;28;20493;-44
2023/04/07 05:42:57;;;;;;;25.17;13.37;;;;;;;;;;5091656;28;20794;-45
2023/04/07 05:45:23;;;;;;;21.03;13.00;;;;;;;;;;5090955;28;20940;-45
2023/04/07 05:47:50;;;;;;;24.67;13.53;;;;;;;;;;5091295;28;20552;-45
2023/04/07 05:50:16;;;;;;;24.53;13.40;;;;;;;;;;5091898;28;20400;-45
2023/04/07 05:52:42;;;;;;;25.00;14.20;;;;;;;;;;5084534;28;20439;-44
2023/04/07 05:55:08;;;;;;;23.60;13.20;;;;;;;;;;5090069;28;20751;-45
2023/04/07 05:57:34;;;;;;;24.47;14.23;;;;;;;;;;5088125;28;20404;-45
2023/04/07 06:00:00;;;;;;;30.43;15.07;;;;;;;;;;5091825;28;20408;-45
2023/04/07 06:02:26;;;;;;;24.77;14.83;;;;;;;;;;5091459;28;20427;-44
2023/04/07 06:04:52;;;;;;;25.97;14.97;;;;;;;;;;5091872;28;20502;-44
2023/04/07 06:07:18;;;;;;;20.87;13.70;;;;;;;;;;5091754;28;20412;-44
2023/04/07 06:09:44;;;;;;;28.27;14.90;;;;;;;;;;5091529;28;20436;-44
2023/04/07 06:12:11;;;;;;;26.97;14.63;;;;;;;;;;5091348;28;20439;-44
2023/04/07 06:14:37;;;;;;;23.03;13.50;;;;;;;;;;5091716;28;20435;-45
2023/04/07 06:17:03;;;;;;;26.40;14.47;;;;;;;;;;5091594;28;20432;-44
2023/04/07 06:19:29;;;;;;;28.33;13.83;;;;;;;;;;5090243;28;20401;-44
2023/04/07 06:21:55;;;;;;;24.07;13.57;;;;;;;;;;5088445;28;20440;-44
2023/04/07 06:24:24;;;;;;;26.97;14.23;;;;;;;;;;5090609;28;20431;-44
2023/04/07 06:26:51;;;;;;;22.70;13.33;;;;;;;;;;5091507;28;20522;-45
2023/04/07 06:29:17;;;;;;;22.53;12.17;;;;;;;;;;5091437;28;20470;-44
2023/04/07 06:31:43;;;;;;;24.37;12.43;;;;;;;;;;5089734;28;20429;-44
2023/04/07 06:34:09;;;;;;;21.93;11.97;;;;;;;;;;5091684;28;20407;-44
2023/04/07 06:36:36;;;;;;;20.20;11.37;;;;;;;;;;5091672;28;20947;-45
2023/04/07 06:39:02;;;;;;;22.77;13.70;;;;;;;;;;5087594;28;20417;-44
2023/04/07 06:41:28;;;;;;;20.53;10.83;;;;;;;;;;5084936;28;20461;-44
2023/04/07 06:43:54;;;;;;;23.77;12.50;;;;;;;;;;5091223;28;20421;-44
2023/04/07 06:46:20;;;;;;;19.27;11.23;;;;;;;;;;5090258;28;20466;-44
2023/04/07 06:48:46;;;;;;;22.70;11.90;;;;;;;;;;5090459;28;20840;-45
2023/04/07 06:51:12;;;;;;;24.23;11.43;;;;;;;;;;5087698;28;20425;-45
2023/04/07 06:53:40;;;;;;;17.90;10.00;;;;;;;;;;5090404;28;20436;-44
2023/04/07 06:56:07;;;;;;;17.57;11.10;;;;;;;;;;5085232;28;20426;-43
2023/04/07 06:58:33;;;;;;;19.67;10.53;;;;;;;;;;5091886;28;20415;-44
2023/04/07 07:01:00;;;;;;;15.87;9.83;;;;;;;;;;5092705;28;20781;-44
2023/04/07 07:03:26;;;;;;;15.83;9.47;;;;;;;;;;5094946;28;20801;-44
2023/04/07 07:05:53;;;;;;;18.77;10.23;;;;;;;;;;5094907;28;20413;-44
2023/04/07 07:08:19;;;;;;;14.83;8.50;;;;;;;;;;5094997;28;20460;-45
2023/04/07 07:10:45;;;;;;;19.20;10.00;;;;;;;;;;5094813;28;20495;-44
2023/04/07 07:13:11;;;;;;;17.10;10.20;;;;;;;;;;5094716;28;20836;-45
2023/04/07 07:15:37;;;;;;;18.07;10.87;;;;;;;;;;5091270;28;20933;-44
2023/04/07 07:18:03;;;;;;;16.90;9.80;;;;;;;;;;5094680;28;20523;-44
2023/04/07 07:20:29;;;;;;;19.50;11.00;;;;;;;;;;5089247;28;20430;-44
2023/04/07 07:22:55;;;;;;;15.10;8.80;;;;;;;;;;5089991;28;20582;-44
2023/04/07 07:25:22;;;;;;;21.47;10.30;;;;;;;;;;5094748;28;20412;-44
2023/04/07 07:27:52;;;;;;;20.40;10.83;;;;;;;;;;5093792;28;20447;-44
2023/04/07 07:30:18;;;;;;;18.77;10.80;;;;;;;;;;5094549;28;20743;-44
2023/04/07 07:32:44;;;;;;;22.10;12.00;;;;;;;;;;5094156;28;20946;-44
2023/04/07 07:35:10;;;;;;;19.63;10.60;;;;;;;;;;5094333;28;20412;-44
2023/04/07 07:37:36;;;;;;;18.83;10.47;;;;;;;;;;5094609;28;20418;-44
2023/04/07 07:40:02;;;;;;;28.53;12.57;;;;;;;;;;5094437;28;20410;-44
2023/04/07 07:42:28;;;;;;;21.77;13.10;;;;;;;;;;5093503;28;20512;-45
2023/04/07 07:44:54;;;;;;;23.97;12.60;;;;;;;;;;5094109;28;20860;-45
2023/04/07 07:47:20;;;;;;;22.63;13.47;;;;;;;;;;5094102;28;20409;-46
2023/04/07 07:49:46;;;;;;;26.63;14.03;;;;;;;;;;5093987;28;20398;-44
2023/04/07 07:52:12;;;;;;;26.63;12.00;;;;;;;;;;5088477;28;20434;-44
2023/04/07 07:54:38;;;;;;;24.03;13.20;;;;;;;;;;5087075;28;20405;-45
2023/04/07 07:57:05;;;;;;;24.17;13.23;;;;;;;;;;5093975;28;20773;-44
2023/04/07 07:59:31;;;;;;;28.20;12.27;;;;;;;;;;5094086;28;20837;-44
2023/04/07 08:01:57;;;;;;;22.90;11.43;;;;;;;;;;5093585;28;20444;-44
2023/04/07 08:04:23;;;;;;;18.40;10.90;;;;;;;;;;5093805;28;20404;-44
2023/04/07 08:06:50;;;;;;;19.30;11.37;;;;;;;;;;5094010;28;20407;-45
2023/04/07 08:09:16;;;;;;;24.40;11.37;;;;;;;;;;5093752;28;20459;-44
2023/04/07 08:11:42;;;;;;;20.77;10.57;;;;;;;;;;5092950;28;20434;-45
2023/04/07 08:14:08;;;;;;;21.57;12.10;;;;;;;;;;5093778;28;20407;-45
2023/04/07 08:16:34;;;;;;;20.23;11.00;;;;;;;;;;5093506;28;20448;-45
2023/04/07 08:19:00;;;;;;;16.77;9.80;;;;;;;;;;5093477;28;20523;-45
2023/04/07 08:21:26;;;;;;;16.93;8.87;;;;;;;;;;5086213;28;20453;-45
2023/04/07 08:23:55;;;;;;;20.57;9.67;;;;;;;;;;5090674;28;20908;-44
2023/04/07 08:26:21;;;;;;;10.30;7.37;;;;;;;;;;5092381;28;20891;-45
2023/04/07 08:28:50;;;;;;;14.10;7.10;;;;;;;;;;5090258;28;20460;-46
2023/04/07 08:31:16;;;;;;;9.00;6.20;;;;;;;;;;5095357;28;20415;-46
2023/04/07 08:33:42;;;;;;;9.77;5.57;;;;;;;;;;5093768;28;20415;-47
2023/04/07 08:36:08;;;;;;;9.63;6.17;;;;;;;;;;5096673;28;20492;-46
2023/04/07 08:38:34;;;;;;;13.50;6.50;;;;;;;;;;5091631;28;20411;-45
2023/04/07 08:41:06;;;;;;;7.80;5.03;;;;;;;;;;5093029;28;20457;-45
2023/04/07 08:43:35;;;;;;;8.73;5.10;;;;;;;;;;5093133;28;20431;-45
2023/04/07 08:46:02;;;;;;;6.30;4.60;;;;;;;;;;5092591;28;20494;-45
2023/04/07 08:48:32;;;;;;;6.63;3.93;;;;;;;;;;5091151;28;20513;-44
2023/04/07 08:50:59;;;;;;;9.37;4.23;;;;;;;;;;5092825;28;20406;-45
2023/04/07 08:53:31;;;;;;;5.07;3.40;;;;;;;;;;5085346;28;20648;-44
2023/04/07 08:55:58;;;;;;;3.97;3.53;;;;;;;;;;5090102;28;20510;-45
2023/04/07 08:58:24;;;;;;;5.57;3.90;;;;;;;;;;5087512;28;20407;-45
2023/04/07 09:00:50;;;;;;;6.73;4.50;;;;;;;;;;5092627;28;20903;-44
2023/04/07 09:03:16;;;;;;;5.13;3.50;;;;;;;;;;5089916;28;20480;-45
2023/04/07 09:05:44;;;;;;;4.30;3.40;;;;;;;;;;5092733;28;20418;-44
2023/04/07 09:08:10;;;;;;;7.60;4.47;;;;;;;;;;5092576;28;20457;-44
2023/04/07 09:10:36;;;;;;;4.60;3.27;;;;;;;;;;5092685;28;20399;-44
2023/04/07 09:13:02;;;;;;;6.13;3.27;;;;;;;;;;5091965;28;20968;-45
2023/04/07 09:15:31;;;;;;;3.57;2.90;;;;;;;;;;5092713;28;20447;-44
2023/04/07 09:17:58;;;;;;;3.47;2.70;;;;;;;;;;5092626;28;20494;-45
2023/04/07 09:20:24;;;;;;;3.60;3.30;;;;;;;;;;5086674;28;20414;-44
2023/04/07 09:22:50;;;;;;;3.03;2.80;;;;;;;;;;5088067;28;20491;-44
2023/04/07 09:25:17;;;;;;;3.80;3.20;;;;;;;;;;5092409;28;20411;-44
2023/04/07 09:27:59;;;;;;;3.27;2.97;;;;;;;;;;5092161;28;20484;-44
2023/04/07 09:30:26;;;;;;;5.37;3.10;;;;;;;;;;5092238;28;20412;-44
2023/04/07 09:32:52;;;;;;;4.87;3.57;;;;;;;;;;5092023;28;20427;-45
2023/04/07 09:35:18;;;;;;;3.80;3.00;;;;;;;;;;5092240;28;20472;-45
2023/04/07 09:37:44;;;;;;;11.57;5.67;;;;;;;;;;5086587;28;20435;-45
2023/04/07 09:40:10;;;;;;;7.20;4.67;;;;;;;;;;5098037;28;20933;-45
2023/04/07 09:42:44;;;;;;;4.53;4.03;;;;;;;;;;5088245;28;20435;-45
2023/04/07 09:45:11;;;;;;;7.53;4.67;;;;;;;;;;5084859;28;20427;-45
2023/04/07 09:47:37;;;;;;;5.63;4.13;;;;;;;;;;5092096;28;20451;-45
2023/04/07 09:50:05;;;;;;;7.23;5.50;;;;;;;;;;5092219;28;20850;-45
2023/04/07 09:52:53;;;;;;;12.10;6.97;;;;;;;;;;5091465;28;20420;-44
2023/04/07 09:55:23;;;;;;;8.80;6.40;;;;;;;;;;5087843;28;20449;-46
2023/04/07 09:57:54;;;;;;;8.17;5.67;;;;;;;;;;5089594;28;20416;-45
2023/04/07 10:00:20;;;;;;;12.23;5.40;;;;;;;;;;5086020;28;20407;-45
2023/04/07 10:02:46;;;;;;;8.63;5.80;;;;;;;;;;5091604;28;20431;-45
2023/04/07 10:05:12;;;;;;;7.17;5.97;;;;;;;;;;5091701;28;20419;-45
2023/04/07 10:07:39;;;;;;;5.47;4.53;;;;;;;;;;5089662;28;20938;-45
2023/04/07 10:10:07;;;;;;;6.20;4.23;;;;;;;;;;5091882;28;20491;-45
2023/04/07 10:12:34;;;;;;;8.00;5.17;;;;;;;;;;5091447;28;20427;-45
2023/04/07 10:15:03;;;;;;;11.23;5.63;;;;;;;;;;5091906;28;20408;-44
2023/04/07 10:17:29;;;;;;;7.83;5.47;;;;;;;;;;5091483;28;20986;-44
2023/04/07 10:19:57;;;;;;;11.37;6.33;;;;;;;;;;5091622;28;20415;-44
2023/04/07 10:22:24;;;;;;;8.53;5.60;;;;;;;;;;5091224;28;20459;-45
2023/04/07 10:25:09;;;;;;;5.87;4.90;;;;;;;;;;5091629;28;20408;-44
2023/04/07 10:27:37;;;;;;;6.30;5.13;;;;;;;;;;5091400;28;20960;-46
2023/04/07 10:30:05;;;;;;;7.40;5.50;;;;;;;;;;5081475;28;20400;-45
2023/04/07 10:32:31;;;;;;;9.67;5.73;;;;;;;;;;5087128;28;20416;-45
2023/04/07 10:34:59;;;;;;;8.60;6.10;;;;;;;;;;5087347;28;20494;-44
2023/04/07 10:37:26;;;;;;;8.03;6.47;;;;;;;;;;5095473;28;20413;-44
2023/04/07 10:40:12;;;;;;;9.90;5.80;;;;;;;;;;5095721;28;20416;-45
2023/04/07 10:42:38;;;;;;;7.80;5.30;;;;;;;;;;5095205;28;20419;-44
2023/04/07 10:45:08;;;;;;;7.97;5.27;;;;;;;;;;5095679;28;20410;-44
2023/04/07 10:47:37;;;;;;;6.90;5.30;;;;;;;;;;5095175;28;20463;-44
2023/04/07 10:50:12;;;;;;;7.40;5.77;;;;;;;;;;5087532;28;20468;-45
2023/04/07 10:52:38;;;;;;;8.27;6.67;;;;;;;;;;5094979;28;20521;-45
2023/04/07 10:55:22;;;;;;;6.97;6.17;;;;;;;;;;5095415;28;20494;-44
2023/04/07 10:58:07;;;;;;;6.23;5.63;;;;;;;;;;5095166;28;20413;-44
2023/04/07 11:00:33;;;;;;;10.77;7.20;;;;;;;;;;5091271;28;20410;-44
2023/04/07 11:03:09;;;;;;;8.93;7.00;;;;;;;;;;5094309;28;20457;-45
2023/04/07 11:05:37;;;;;;;12.10;7.90;;;;;;;;;;5093236;28;20415;-44
2023/04/07 11:08:05;;;;;;;8.87;7.33;;;;;;;;;;5094199;28;20506;-44
2023/04/07 11:10:31;;;;;;;10.70;7.20;;;;;;;;;;5094923;28;20472;-44
2023/04/07 11:13:07;;;;;;;9.03;7.40;;;;;;;;;;5094672;28;20434;-44
2023/04/07 11:15:36;;;;;;;9.50;7.17;;;;;;;;;;5095213;28;20415;-43
2023/04/07 11:18:09;;;;;;;8.57;6.90;;;;;;;;;;5094764;28;20429;-45
2023/04/07 11:20:40;;;;;;;10.00;7.37;;;;;;;;;;5094889;28;20428;-44
2023/04/07 11:23:06;;;;;;;9.53;7.30;;;;;;;;;;5094494;28;20787;-45
2023/04/07 11:25:33;;;;;;;10.20;6.40;;;;;;;;;;5095010;28;20417;-44
2023/04/07 11:27:59;;;;;;;7.67;6.73;;;;;;;;;;5094432;28;20482;-44
2023/04/07 11:30:25;;;;;;;7.93;7.23;;;;;;;;;;5094609;28;20450;-45
2023/04/07 11:32:51;;;;;;;7.80;6.93;;;;;;;;;;5093285;28;20431;-43
2023/04/07 11:35:17;;;;;;;7.23;6.53;;;;;;;;;;5094738;28;20415;-45
2023/04/07 11:37:43;;;;;;;8.10;6.70;;;;;;;;;;5093680;28;20828;-45
2023/04/07 11:40:10;;;;;;;8.53;6.27;;;;;;;;;;5094689;28;20395;-46
2023/04/07 11:42:37;;;;;;;9.67;7.50;;;;;;;;;;5094179;28;20465;-44
2023/04/07 11:45:03;;;;;;;8.33;6.93;;;;;;;;;;5094308;28;20910;-45
2023/04/07 11:47:39;;;;;;;7.73;7.03;;;;;;;;;;5093745;28;20823;-44
2023/04/07 11:50:05;;;;;;;8.10;7.07;;;;;;;;;;5094355;28;20418;-44
2023/04/07 11:52:44;;;;;;;8.90;6.60;;;;;;;;;;5092762;28;20443;-44
2023/04/07 11:55:36;;;;;;;9.27;6.97;;;;;;;;;;5094509;28;20407;-46
2023/04/07 11:58:09;;;;;;;7.67;6.87;;;;;;;;;;5093125;28;20438;-46
2023/04/07 12:00:35;;;;;;;8.60;6.90;;;;;;;;;;5093965;28;20484;-44
2023/04/07 12:03:14;;;;;;;7.70;6.73;;;;;;;;;;5092726;28;20431;-45
2023/04/07 12:05:44;;;;;;;8.30;6.23;;;;;;;;;;5094188;28;20403;-44
2023/04/07 12:08:10;;;;;;;8.40;7.30;;;;;;;;;;5094663;28;20470;-45
2023/04/07 12:10:39;;;;;;;7.63;6.77;;;;;;;;;;5095795;28;20482;-45
2023/04/07 12:13:06;;;;;;;6.57;5.97;;;;;;;;;;5095311;28;20439;-46
2023/04/07 12:15:32;;;;;;;6.97;6.10;;;;;;;;;;5095807;28;20407;-46
2023/04/07 12:17:58;;;;;;;7.70;6.67;;;;;;;;;;5094070;28;20429;-45
2023/04/07 12:20:24;;;;;;;6.37;5.63;;;;;;;;;;5093788;28;20422;-44
2023/04/07 12:22:50;;;;;;;7.27;6.10;;;;;;;;;;5093695;28;20427;-44
2023/04/07 12:25:16;;;;;;;5.87;5.37;;;;;;;;;;5093812;28;20494;-44
2023/04/07 12:27:42;;;;;;;6.00;5.50;;;;;;;;;;5094914;28;20515;-47
2023/04/07 12:30:08;;;;;;;6.50;5.90;;;;;;;;;;5095720;28;20766;-46
2023/04/07 12:32:34;;;;;;;7.03;6.20;;;;;;;;;;5095640;28;20485;-45
2023/04/07 12:35:00;;;;;;;8.83;5.30;;;;;;;;;;5091186;28;20480;-47
2023/04/07 12:37:26;;;;;;;6.63;5.73;;;;;;;;;;5093750;28;20480;-45
2023/04/07 12:39:52;;;;;;;5.77;5.27;;;;;;;;;;5095352;28;20468;-46
2023/04/07 12:42:18;;;;;;;6.40;5.80;;;;;;;;;;5095234;28;20436;-46
2023/04/07 12:44:44;;;;;;;5.87;5.20;;;;;;;;;;5095509;28;20412;-48
2023/04/07 12:47:11;;;;;;;6.07;5.47;;;;;;;;;;5095333;28;20396;-48
2023/04/07 12:49:37;;;;;;;5.70;5.17;;;;;;;;;;5095209;28;20459;-47
2023/04/07 12:52:03;;;;;;;5.90;4.87;;;;;;;;;;5095101;28;20981;-47
2023/04/07 12:54:29;;;;;;;5.90;5.40;;;;;;;;;;5095668;28;20449;-48
2023/04/07 12:56:56;;;;;;;11.17;9.77;;;;;;;;;;5095036;28;20432;-48
2023/04/07 12:59:22;;;;;;;5.87;5.30;;;;;;;;;;5094710;28;20408;-45
2023/04/07 13:01:48;;;;;;;5.40;4.67;;;;;;;;;;5095307;28;20433;-46
2023/04/07 13:04:16;;;;;;;6.07;5.13;;;;;;;;;;5092081;28;20450;-46
2023/04/07 13:06:42;;;;;;;5.20;4.70;;;;;;;;;;5095192;28;20439;-45
2023/04/07 13:09:08;;;;;;;4.90;4.40;;;;;;;;;;5075088;28;20484;-47
2023/04/07 13:11:35;;;;;;;5.73;5.13;;;;;;;;;;5091851;28;20521;-46
2023/04/07 13:14:01;;;;;;;6.63;5.40;;;;;;;;;;5095427;28;20422;-45
2023/04/07 13:16:27;;;;;;;5.83;5.00;;;;;;;;;;5095855;28;20411;-47
2023/04/07 13:18:53;;;;;;;6.00;5.40;;;;;;;;;;5094672;28;20451;-45
2023/04/07 13:21:19;;;;;;;6.90;5.37;;;;;;;;;;5094707;28;20778;-47
2023/04/07 13:23:45;;;;;;;5.80;4.73;;;;;;;;;;5095101;28;20767;-47
2023/04/07 13:26:11;;;;;;;6.27;5.20;;;;;;;;;;5094579;28;20403;-45
2023/04/07 13:28:37;;;;;;;6.23;5.63;;;;;;;;;;5092224;28;20456;-44
2023/04/07 13:31:03;;;;;;;7.97;6.03;;;;;;;;;;5092332;28;20403;-44
2023/04/07 13:33:29;;;;;;;6.30;5.70;;;;;;;;;;5090923;28;20526;-45
2023/04/07 13:35:55;;;;;;;6.00;5.47;;;;;;;;;;5091264;28;20416;-45
2023/04/07 13:38:21;;;;;;;6.80;6.10;;;;;;;;;;5091348;28;20427;-45
2023/04/07 13:40:48;;;;;;;6.63;5.83;;;;;;;;;;5092043;28;20426;-45
2023/04/07 13:43:14;;;;;;;10.30;7.53;;;;;;;;;;5092165;28;20842;-44
2023/04/07 13:45:40;;;;;;;9.93;6.87;;;;;;;;;;5092766;28;20479;-46
2023/04/07 13:48:06;;;;;;;8.67;7.50;;;;;;;;;;5094950;28;20463;-46
2023/04/07 13:50:35;;;;;;;8.50;7.27;;;;;;;;;;5093561;28;21174;-47
2023/04/07 13:53:01;;;;;;;10.60;8.23;;;;;;;;;;5094289;28;20423;-46
2023/04/07 13:55:27;;;;;;;9.70;8.47;;;;;;;;;;5094645;28;20419;-48
2023/04/07 13:57:53;;;;;;;8.83;7.90;;;;;;;;;;5094468;28;20433;-47
2023/04/07 14:00:19;;;;;;;10.87;8.40;;;;;;;;;;5094708;28;20500;-46
2023/04/07 14:02:47;;;;;;;13.23;9.60;;;;;;;;;;5094172;28;20415;-45
2023/04/07 14:05:13;;;;;;;11.40;9.73;;;;;;;;;;5079338;28;20478;-47
2023/04/07 14:07:39;;;;;;;10.40;8.77;;;;;;;;;;5092292;28;20476;-47
2023/04/07 14:10:05;;;;;;;11.63;9.53;;;;;;;;;;5094112;28;20416;-46
2023/04/07 14:12:31;;;;;;;8.53;7.63;;;;;;;;;;5094421;28;20431;-47
2023/04/07 14:14:57;;;;;;;9.57;7.83;;;;;;;;;;5094340;28;20426;-47
2023/04/07 14:17:23;;;;;;;10.90;9.80;;;;;;;;;;5094260;28;20500;-47
2023/04/07 14:19:50;;;;;;;10.83;9.30;;;;;;;;;;5094161;28;20543;-47
2023/04/07 14:22:17;;;;;;;11.50;8.77;;;;;;;;;;5093263;28;20455;-46
2023/04/07 14:24:44;;;;;;;12.13;9.83;;;;;;;;;;5093694;28;20407;-46
2023/04/07 14:27:09;;;;;;;11.50;10.03;;;;;;;;;;5094002;28;20400;-46